sensor_id;sensor_type;location;lat;lon;timestamp;P1;durP1;ratioP1;P2;durP2;ratioP2
74941;SDS011;63506;49.346;8.798;2023-09-19T00:00:26;2.00;;;1.40;;
74941;SDS011;63506;49.346;8.798;2023-09-19T00:02:56;2.38;;;1.75;;
74941;SDS011;63506;49.346;8.798;2023-09-19T00:05:27;5.75;;;1.83;;
74941;SDS011;63506;49.346;8.798;2023-09-19T00:07:59;6.80;;;2.22;;
74941;SDS011;63506;49.346;8.798;2023-09-19T00:10:26;2.55;;;1.48;;
74941;SDS011;63506;49.346;8.798;2023-09-19T00:12:57;2.65;;;1.65;;
74941;SDS011;63506;49.346;8.798;2023-09-19T00:15:25;1.88;;;1.20;;
74941;SDS011;63506;49.346;8.798;2023-09-19T00:17:56;2.83;;;1.92;;
74941;SDS011;63506;49.346;8.798;2023-09-19T00:20:25;5.95;;;1.83;;
74941;SDS011;63506;49.346;8.798;2023-09-19T00:22:52;2.70;;;1.27;;
74941;SDS011;63506;49.346;8.798;2023-09-19T00:25:25;3.65;;;2.05;;
74941;SDS011;63506;49.346;8.798;2023-09-19T00:27:54;1.77;;;1.50;;
74941;SDS011;63506;49.346;8.798;2023-09-19T00:30:21;2.70;;;1.52;;
74941;SDS011;63506;49.346;8.798;2023-09-19T00:32:51;3.08;;;1.58;;
74941;SDS011;63506;49.346;8.798;2023-09-19T00:35:21;2.53;;;1.80;;
74941;SDS011;63506;49.346;8.798;2023-09-19T00:37:53;2.55;;;2.05;;
74941;SDS011;63506;49.346;8.798;2023-09-19T00:40:21;8.48;;;2.70;;
74941;SDS011;63506;49.346;8.798;2023-09-19T00:42:49;2.70;;;1.60;;
74941;SDS011;63506;49.346;8.798;2023-09-19T00:45:17;5.85;;;2.40;;
74941;SDS011;63506;49.346;8.798;2023-09-19T00:47:51;7.13;;;2.45;;
74941;SDS011;63506;49.346;8.798;2023-09-19T00:50:19;3.30;;;2.05;;
74941;SDS011;63506;49.346;8.798;2023-09-19T00:52:50;3.85;;;2.15;;
74941;SDS011;63506;49.346;8.798;2023-09-19T00:55:25;3.60;;;1.90;;
74941;SDS011;63506;49.346;8.798;2023-09-19T00:57:55;6.28;;;2.10;;
74941;SDS011;63506;49.346;8.798;2023-09-19T01:00:23;3.40;;;2.08;;
74941;SDS011;63506;49.346;8.798;2023-09-19T01:02:50;2.92;;;1.90;;
74941;SDS011;63506;49.346;8.798;2023-09-19T01:05:19;3.03;;;2.15;;
74941;SDS011;63506;49.346;8.798;2023-09-19T01:07:50;7.53;;;2.05;;
74941;SDS011;63506;49.346;8.798;2023-09-19T01:10:19;2.80;;;2.50;;
74941;SDS011;63506;49.346;8.798;2023-09-19T01:12:53;4.70;;;2.47;;
74941;SDS011;63506;49.346;8.798;2023-09-19T01:15:26;4.82;;;3.50;;
74941;SDS011;63506;49.346;8.798;2023-09-19T01:18:01;2.95;;;2.20;;
74941;SDS011;63506;49.346;8.798;2023-09-19T01:20:37;3.25;;;2.60;;
74941;SDS011;63506;49.346;8.798;2023-09-19T01:23:12;3.05;;;2.38;;
74941;SDS011;63506;49.346;8.798;2023-09-19T01:28:51;3.25;;;2.78;;
74941;SDS011;63506;49.346;8.798;2023-09-19T01:31:24;5.22;;;2.10;;
74941;SDS011;63506;49.346;8.798;2023-09-19T01:33:57;3.72;;;1.83;;
74941;SDS011;63506;49.346;8.798;2023-09-19T01:36:28;3.88;;;2.08;;
74941;SDS011;63506;49.346;8.798;2023-09-19T01:39:03;4.32;;;2.42;;
74941;SDS011;63506;49.346;8.798;2023-09-19T01:41:38;3.70;;;1.63;;
74941;SDS011;63506;49.346;8.798;2023-09-19T01:44:17;3.90;;;2.15;;
74941;SDS011;63506;49.346;8.798;2023-09-19T01:46:53;3.03;;;1.60;;
74941;SDS011;63506;49.346;8.798;2023-09-19T01:49:26;1.58;;;1.45;;
74941;SDS011;63506;49.346;8.798;2023-09-19T01:52:00;4.47;;;2.03;;
74941;SDS011;63506;49.346;8.798;2023-09-19T01:54:33;2.00;;;1.25;;
74941;SDS011;63506;49.346;8.798;2023-09-19T01:57:09;1.83;;;1.60;;
74941;SDS011;63506;49.346;8.798;2023-09-19T01:59:43;4.45;;;2.03;;
74941;SDS011;63506;49.346;8.798;2023-09-19T02:02:18;2.15;;;1.23;;
74941;SDS011;63506;49.346;8.798;2023-09-19T02:04:48;2.28;;;1.13;;
74941;SDS011;63506;49.346;8.798;2023-09-19T02:07:18;3.50;;;1.15;;
74941;SDS011;63506;49.346;8.798;2023-09-19T02:09:45;4.78;;;1.80;;
74941;SDS011;63506;49.346;8.798;2023-09-19T02:12:13;2.28;;;1.70;;
74941;SDS011;63506;49.346;8.798;2023-09-19T02:14:42;2.38;;;1.85;;
74941;SDS011;63506;49.346;8.798;2023-09-19T02:17:09;1.92;;;1.17;;
74941;SDS011;63506;49.346;8.798;2023-09-19T02:19:38;3.97;;;1.67;;
74941;SDS011;63506;49.346;8.798;2023-09-19T02:22:08;3.33;;;1.35;;
74941;SDS011;63506;49.346;8.798;2023-09-19T02:24:36;5.18;;;1.65;;
74941;SDS011;63506;49.346;8.798;2023-09-19T02:27:04;3.28;;;1.60;;
74941;SDS011;63506;49.346;8.798;2023-09-19T02:29:33;7.55;;;2.42;;
74941;SDS011;63506;49.346;8.798;2023-09-19T02:32:00;2.72;;;1.55;;
74941;SDS011;63506;49.346;8.798;2023-09-19T02:34:28;1.90;;;1.60;;
74941;SDS011;63506;49.346;8.798;2023-09-19T02:37:00;4.32;;;1.50;;
74941;SDS011;63506;49.346;8.798;2023-09-19T02:39:34;3.22;;;1.60;;
74941;SDS011;63506;49.346;8.798;2023-09-19T02:42:04;4.80;;;2.17;;
74941;SDS011;63506;49.346;8.798;2023-09-19T02:44:34;3.67;;;1.20;;
74941;SDS011;63506;49.346;8.798;2023-09-19T02:47:04;2.63;;;1.33;;
74941;SDS011;63506;49.346;8.798;2023-09-19T02:49:34;2.50;;;1.58;;
74941;SDS011;63506;49.346;8.798;2023-09-19T02:52:05;4.80;;;1.85;;
74941;SDS011;63506;49.346;8.798;2023-09-19T02:54:35;2.63;;;1.58;;
74941;SDS011;63506;49.346;8.798;2023-09-19T02:57:03;3.67;;;1.52;;
74941;SDS011;63506;49.346;8.798;2023-09-19T02:59:32;3.13;;;1.60;;
74941;SDS011;63506;49.346;8.798;2023-09-19T03:02:03;2.63;;;1.45;;
74941;SDS011;63506;49.346;8.798;2023-09-19T03:04:34;2.63;;;1.77;;
74941;SDS011;63506;49.346;8.798;2023-09-19T03:07:02;2.50;;;1.48;;
74941;SDS011;63506;49.346;8.798;2023-09-19T03:09:35;2.80;;;1.67;;
74941;SDS011;63506;49.346;8.798;2023-09-19T03:12:04;2.33;;;1.35;;
74941;SDS011;63506;49.346;8.798;2023-09-19T03:14:33;3.47;;;1.92;;
74941;SDS011;63506;49.346;8.798;2023-09-19T03:17:02;5.35;;;1.67;;
74941;SDS011;63506;49.346;8.798;2023-09-19T03:19:30;3.35;;;1.88;;
74941;SDS011;63506;49.346;8.798;2023-09-19T03:22:01;4.43;;;1.85;;
74941;SDS011;63506;49.346;8.798;2023-09-19T03:24:31;3.75;;;1.58;;
74941;SDS011;63506;49.346;8.798;2023-09-19T03:29:34;3.10;;;2.58;;
74941;SDS011;63506;49.346;8.798;2023-09-19T03:32:04;3.03;;;1.80;;
74941;SDS011;63506;49.346;8.798;2023-09-19T03:34:32;4.07;;;1.92;;
74941;SDS011;63506;49.346;8.798;2023-09-19T03:37:00;2.72;;;1.92;;
74941;SDS011;63506;49.346;8.798;2023-09-19T03:39:28;2.95;;;1.45;;
74941;SDS011;63506;49.346;8.798;2023-09-19T03:41:57;2.83;;;2.03;;
74941;SDS011;63506;49.346;8.798;2023-09-19T03:44:25;2.28;;;1.75;;
74941;SDS011;63506;49.346;8.798;2023-09-19T03:46:53;3.45;;;1.88;;
74941;SDS011;63506;49.346;8.798;2023-09-19T03:49:24;2.35;;;1.92;;
74941;SDS011;63506;49.346;8.798;2023-09-19T03:51:51;2.83;;;1.88;;
74941;SDS011;63506;49.346;8.798;2023-09-19T03:54:19;2.97;;;1.83;;
74941;SDS011;63506;49.346;8.798;2023-09-19T03:56:48;4.72;;;1.67;;
74941;SDS011;63506;49.346;8.798;2023-09-19T03:59:20;2.17;;;1.83;;
74941;SDS011;63506;49.346;8.798;2023-09-19T04:01:47;2.88;;;2.10;;
74941;SDS011;63506;49.346;8.798;2023-09-19T04:04:16;3.75;;;1.67;;
74941;SDS011;63506;49.346;8.798;2023-09-19T04:06:47;4.38;;;2.42;;
74941;SDS011;63506;49.346;8.798;2023-09-19T04:09:16;4.63;;;3.05;;
74941;SDS011;63506;49.346;8.798;2023-09-19T04:11:46;2.20;;;2.00;;
74941;SDS011;63506;49.346;8.798;2023-09-19T04:14:19;3.67;;;2.58;;
74941;SDS011;63506;49.346;8.798;2023-09-19T04:16:46;4.50;;;2.03;;
74941;SDS011;63506;49.346;8.798;2023-09-19T04:19:14;2.80;;;2.35;;
74941;SDS011;63506;49.346;8.798;2023-09-19T04:21:44;2.92;;;2.38;;
74941;SDS011;63506;49.346;8.798;2023-09-19T04:24:12;3.90;;;3.03;;
74941;SDS011;63506;49.346;8.798;2023-09-19T04:26:45;5.45;;;2.60;;
74941;SDS011;63506;49.346;8.798;2023-09-19T04:29:12;4.22;;;2.67;;
74941;SDS011;63506;49.346;8.798;2023-09-19T04:31:41;3.58;;;2.28;;
74941;SDS011;63506;49.346;8.798;2023-09-19T04:34:12;3.55;;;2.00;;
74941;SDS011;63506;49.346;8.798;2023-09-19T04:36:44;3.30;;;2.28;;
74941;SDS011;63506;49.346;8.798;2023-09-19T04:39:11;4.22;;;2.05;;
74941;SDS011;63506;49.346;8.798;2023-09-19T04:41:39;4.47;;;2.38;;
74941;SDS011;63506;49.346;8.798;2023-09-19T04:44:07;3.38;;;2.22;;
74941;SDS011;63506;49.346;8.798;2023-09-19T04:46:34;6.03;;;2.97;;
74941;SDS011;63506;49.346;8.798;2023-09-19T04:49:06;3.83;;;2.30;;
74941;SDS011;63506;49.346;8.798;2023-09-19T04:51:33;3.53;;;2.35;;
74941;SDS011;63506;49.346;8.798;2023-09-19T04:54:02;4.97;;;3.35;;
74941;SDS011;63506;49.346;8.798;2023-09-19T04:56:29;5.43;;;2.72;;
74941;SDS011;63506;49.346;8.798;2023-09-19T04:59:00;2.70;;;2.22;;
74941;SDS011;63506;49.346;8.798;2023-09-19T05:01:29;2.88;;;2.65;;
74941;SDS011;63506;49.346;8.798;2023-09-19T05:04:02;3.78;;;2.65;;
74941;SDS011;63506;49.346;8.798;2023-09-19T05:06:32;7.28;;;3.25;;
74941;SDS011;63506;49.346;8.798;2023-09-19T05:09:01;9.43;;;4.40;;
74941;SDS011;63506;49.346;8.798;2023-09-19T05:11:31;6.82;;;3.53;;
74941;SDS011;63506;49.346;8.798;2023-09-19T05:14:02;4.93;;;3.53;;
74941;SDS011;63506;49.346;8.798;2023-09-19T05:16:29;5.03;;;3.40;;
74941;SDS011;63506;49.346;8.798;2023-09-19T05:19:03;4.80;;;3.67;;
74941;SDS011;63506;49.346;8.798;2023-09-19T05:21:34;3.58;;;2.97;;
74941;SDS011;63506;49.346;8.798;2023-09-19T05:24:04;3.00;;;2.67;;
74941;SDS011;63506;49.346;8.798;2023-09-19T05:26:35;7.03;;;3.42;;
74941;SDS011;63506;49.346;8.798;2023-09-19T05:29:05;5.72;;;2.88;;
74941;SDS011;63506;49.346;8.798;2023-09-19T05:31:33;3.17;;;2.88;;
74941;SDS011;63506;49.346;8.798;2023-09-19T05:34:04;4.15;;;2.63;;
74941;SDS011;63506;49.346;8.798;2023-09-19T05:36:33;5.38;;;3.28;;
74941;SDS011;63506;49.346;8.798;2023-09-19T05:39:01;6.97;;;3.58;;
74941;SDS011;63506;49.346;8.798;2023-09-19T05:41:29;5.18;;;3.67;;
74941;SDS011;63506;49.346;8.798;2023-09-19T05:43:57;3.53;;;3.08;;
74941;SDS011;63506;49.346;8.798;2023-09-19T05:46:25;3.05;;;2.63;;
74941;SDS011;63506;49.346;8.798;2023-09-19T05:48:55;3.47;;;3.00;;
74941;SDS011;63506;49.346;8.798;2023-09-19T05:51:23;2.95;;;2.65;;
74941;SDS011;63506;49.346;8.798;2023-09-19T05:53:56;5.30;;;3.00;;
74941;SDS011;63506;49.346;8.798;2023-09-19T05:56:23;5.07;;;3.17;;
74941;SDS011;63506;49.346;8.798;2023-09-19T05:58:53;4.85;;;3.20;;
74941;SDS011;63506;49.346;8.798;2023-09-19T06:03:54;7.38;;;2.67;;
74941;SDS011;63506;49.346;8.798;2023-09-19T06:06:23;4.90;;;2.92;;
74941;SDS011;63506;49.346;8.798;2023-09-19T06:08:51;3.55;;;2.33;;
74941;SDS011;63506;49.346;8.798;2023-09-19T06:11:20;2.40;;;2.15;;
74941;SDS011;63506;49.346;8.798;2023-09-19T06:13:48;5.47;;;2.17;;
74941;SDS011;63506;49.346;8.798;2023-09-19T06:16:17;4.85;;;2.65;;
74941;SDS011;63506;49.346;8.798;2023-09-19T06:18:45;5.43;;;2.15;;
74941;SDS011;63506;49.346;8.798;2023-09-19T06:21:13;4.53;;;2.47;;
74941;SDS011;63506;49.346;8.798;2023-09-19T06:23:42;4.90;;;3.72;;
74941;SDS011;63506;49.346;8.798;2023-09-19T06:26:09;7.05;;;3.30;;
74941;SDS011;63506;49.346;8.798;2023-09-19T06:28:43;3.42;;;2.63;;
74941;SDS011;63506;49.346;8.798;2023-09-19T06:31:10;3.95;;;2.47;;
74941;SDS011;63506;49.346;8.798;2023-09-19T06:33:38;5.80;;;2.58;;
74941;SDS011;63506;49.346;8.798;2023-09-19T06:36:08;11.82;;;2.42;;
74941;SDS011;63506;49.346;8.798;2023-09-19T06:38:35;3.35;;;2.55;;
74941;SDS011;63506;49.346;8.798;2023-09-19T06:41:04;5.40;;;3.50;;
74941;SDS011;63506;49.346;8.798;2023-09-19T06:43:33;4.65;;;2.33;;
74941;SDS011;63506;49.346;8.798;2023-09-19T06:46:05;3.92;;;2.20;;
74941;SDS011;63506;49.346;8.798;2023-09-19T06:48:33;5.30;;;3.00;;
74941;SDS011;63506;49.346;8.798;2023-09-19T06:51:03;4.50;;;2.47;;
74941;SDS011;63506;49.346;8.798;2023-09-19T06:53:31;4.85;;;2.50;;
74941;SDS011;63506;49.346;8.798;2023-09-19T06:55:58;8.63;;;1.95;;
74941;SDS011;63506;49.346;8.798;2023-09-19T06:58:28;3.28;;;2.20;;
74941;SDS011;63506;49.346;8.798;2023-09-19T07:00:59;3.08;;;2.53;;
74941;SDS011;63506;49.346;8.798;2023-09-19T07:03:30;2.60;;;2.08;;
74941;SDS011;63506;49.346;8.798;2023-09-19T07:05:59;4.80;;;2.40;;
74941;SDS011;63506;49.346;8.798;2023-09-19T07:08:32;3.95;;;2.08;;
74941;SDS011;63506;49.346;8.798;2023-09-19T07:10:59;4.30;;;2.25;;
74941;SDS011;63506;49.346;8.798;2023-09-19T07:13:27;5.38;;;2.80;;
74941;SDS011;63506;49.346;8.798;2023-09-19T07:15:54;4.93;;;2.95;;
74941;SDS011;63506;49.346;8.798;2023-09-19T07:18:22;2.50;;;2.17;;
74941;SDS011;63506;49.346;8.798;2023-09-19T07:20:56;4.63;;;2.60;;
74941;SDS011;63506;49.346;8.798;2023-09-19T07:23:29;5.45;;;1.73;;
74941;SDS011;63506;49.346;8.798;2023-09-19T07:26:02;2.33;;;2.13;;
74941;SDS011;63506;49.346;8.798;2023-09-19T07:28:31;6.95;;;2.40;;
74941;SDS011;63506;49.346;8.798;2023-09-19T07:31:01;3.55;;;2.25;;
74941;SDS011;63506;49.346;8.798;2023-09-19T07:33:29;4.85;;;2.50;;
74941;SDS011;63506;49.346;8.798;2023-09-19T07:36:02;4.40;;;1.90;;
74941;SDS011;63506;49.346;8.798;2023-09-19T07:38:29;2.92;;;2.00;;
74941;SDS011;63506;49.346;8.798;2023-09-19T07:41:00;2.55;;;1.88;;
74941;SDS011;63506;49.346;8.798;2023-09-19T07:43:28;4.00;;;2.47;;
74941;SDS011;63506;49.346;8.798;2023-09-19T07:45:58;4.72;;;2.35;;
74941;SDS011;63506;49.346;8.798;2023-09-19T07:48:32;2.78;;;1.83;;
74941;SDS011;63506;49.346;8.798;2023-09-19T07:51:03;6.47;;;1.52;;
74941;SDS011;63506;49.346;8.798;2023-09-19T07:53:33;2.55;;;2.35;;
74941;SDS011;63506;49.346;8.798;2023-09-19T07:56:02;3.65;;;1.60;;
74941;SDS011;63506;49.346;8.798;2023-09-19T07:58:30;2.33;;;1.60;;
74941;SDS011;63506;49.346;8.798;2023-09-19T08:01:07;2.33;;;1.27;;
74941;SDS011;63506;49.346;8.798;2023-09-19T08:03:38;2.60;;;1.67;;
74941;SDS011;63506;49.346;8.798;2023-09-19T08:06:16;2.78;;;1.67;;
74941;SDS011;63506;49.346;8.798;2023-09-19T08:08:51;2.75;;;1.33;;
74941;SDS011;63506;49.346;8.798;2023-09-19T08:11:20;4.15;;;2.08;;
74941;SDS011;63506;49.346;8.798;2023-09-19T08:13:50;5.35;;;1.40;;
74941;SDS011;63506;49.346;8.798;2023-09-19T08:16:20;2.85;;;1.85;;
74941;SDS011;63506;49.346;8.798;2023-09-19T08:18:50;4.15;;;1.50;;
74941;SDS011;63506;49.346;8.798;2023-09-19T08:21:25;5.95;;;2.13;;
74941;SDS011;63506;49.346;8.798;2023-09-19T08:23:55;2.97;;;1.73;;
74941;SDS011;63506;49.346;8.798;2023-09-19T08:26:23;1.95;;;0.90;;
74941;SDS011;63506;49.346;8.798;2023-09-19T08:28:52;2.85;;;1.23;;
74941;SDS011;63506;49.346;8.798;2023-09-19T08:31:21;1.83;;;0.88;;
74941;SDS011;63506;49.346;8.798;2023-09-19T08:33:52;3.10;;;1.70;;
74941;SDS011;63506;49.346;8.798;2023-09-19T08:36:21;3.92;;;1.77;;
74941;SDS011;63506;49.346;8.798;2023-09-19T08:38:50;4.93;;;1.90;;
74941;SDS011;63506;49.346;8.798;2023-09-19T08:41:18;3.05;;;1.15;;
74941;SDS011;63506;49.346;8.798;2023-09-19T08:43:53;1.95;;;1.40;;
74941;SDS011;63506;49.346;8.798;2023-09-19T08:46:21;3.47;;;1.45;;
74941;SDS011;63506;49.346;8.798;2023-09-19T08:48:54;2.72;;;1.63;;
74941;SDS011;63506;49.346;8.798;2023-09-19T08:51:27;3.55;;;1.65;;
74941;SDS011;63506;49.346;8.798;2023-09-19T08:54:03;16.65;;;2.22;;
74941;SDS011;63506;49.346;8.798;2023-09-19T08:56:31;2.15;;;1.27;;
74941;SDS011;63506;49.346;8.798;2023-09-19T08:58:59;3.67;;;1.50;;
74941;SDS011;63506;49.346;8.798;2023-09-19T09:01:31;2.97;;;1.38;;
74941;SDS011;63506;49.346;8.798;2023-09-19T09:04:05;3.58;;;1.48;;
74941;SDS011;63506;49.346;8.798;2023-09-19T09:06:39;2.03;;;1.30;;
74941;SDS011;63506;49.346;8.798;2023-09-19T09:09:10;2.80;;;1.80;;
74941;SDS011;63506;49.346;8.798;2023-09-19T09:11:38;3.50;;;1.20;;
74941;SDS011;63506;49.346;8.798;2023-09-19T09:14:07;6.13;;;1.95;;
74941;SDS011;63506;49.346;8.798;2023-09-19T09:16:35;8.73;;;2.67;;
74941;SDS011;63506;49.346;8.798;2023-09-19T09:19:05;2.25;;;1.60;;
74941;SDS011;63506;49.346;8.798;2023-09-19T09:21:33;2.47;;;1.98;;
74941;SDS011;63506;49.346;8.798;2023-09-19T09:26:56;3.85;;;1.50;;
74941;SDS011;63506;49.346;8.798;2023-09-19T09:29:39;1.75;;;1.30;;
74941;SDS011;63506;49.346;8.798;2023-09-19T09:32:18;2.70;;;1.15;;
74941;SDS011;63506;49.346;8.798;2023-09-19T09:34:49;5.03;;;1.27;;
74941;SDS011;63506;49.346;8.798;2023-09-19T09:37:18;1.92;;;1.17;;
74941;SDS011;63506;49.346;8.798;2023-09-19T09:39:50;2.55;;;1.08;;
74941;SDS011;63506;49.346;8.798;2023-09-19T09:45:14;2.40;;;1.70;;
74941;SDS011;63506;49.346;8.798;2023-09-19T09:47:43;2.55;;;1.50;;
74941;SDS011;63506;49.346;8.798;2023-09-19T09:50:23;2.05;;;1.73;;
74941;SDS011;63506;49.346;8.798;2023-09-19T09:53:19;4.30;;;2.10;;
74941;SDS011;63506;49.346;8.798;2023-09-19T09:56:00;2.83;;;1.20;;
74941;SDS011;63506;49.346;8.798;2023-09-19T09:58:32;3.53;;;1.58;;
74941;SDS011;63506;49.346;8.798;2023-09-19T10:01:03;2.47;;;1.35;;
74941;SDS011;63506;49.346;8.798;2023-09-19T10:03:39;2.63;;;2.13;;
74941;SDS011;63506;49.346;8.798;2023-09-19T10:06:07;3.28;;;1.08;;
74941;SDS011;63506;49.346;8.798;2023-09-19T10:08:57;2.08;;;1.10;;
74941;SDS011;63506;49.346;8.798;2023-09-19T10:11:42;3.88;;;1.75;;
74941;SDS011;63506;49.346;8.798;2023-09-19T10:14:11;3.50;;;1.65;;
74941;SDS011;63506;49.346;8.798;2023-09-19T10:16:44;8.45;;;1.58;;
74941;SDS011;63506;49.346;8.798;2023-09-19T10:19:16;2.38;;;1.40;;
74941;SDS011;63506;49.346;8.798;2023-09-19T10:21:50;3.42;;;1.40;;
74941;SDS011;63506;49.346;8.798;2023-09-19T10:24:21;3.08;;;1.35;;
74941;SDS011;63506;49.346;8.798;2023-09-19T10:26:52;2.63;;;1.38;;
74941;SDS011;63506;49.346;8.798;2023-09-19T10:29:20;3.38;;;1.60;;
74941;SDS011;63506;49.346;8.798;2023-09-19T10:31:48;2.72;;;1.40;;
74941;SDS011;63506;49.346;8.798;2023-09-19T10:34:19;6.10;;;2.20;;
74941;SDS011;63506;49.346;8.798;2023-09-19T10:36:48;2.50;;;1.80;;
74941;SDS011;63506;49.346;8.798;2023-09-19T10:39:16;3.85;;;1.42;;
74941;SDS011;63506;49.346;8.798;2023-09-19T10:41:47;3.13;;;1.55;;
74941;SDS011;63506;49.346;8.798;2023-09-19T10:44:23;2.75;;;2.13;;
74941;SDS011;63506;49.346;8.798;2023-09-19T10:46:51;1.88;;;1.58;;
74941;SDS011;63506;49.346;8.798;2023-09-19T10:49:22;2.00;;;1.40;;
74941;SDS011;63506;49.346;8.798;2023-09-19T10:51:53;6.55;;;1.75;;
74941;SDS011;63506;49.346;8.798;2023-09-19T10:54:24;2.53;;;1.40;;
74941;SDS011;63506;49.346;8.798;2023-09-19T10:56:58;2.70;;;2.08;;
74941;SDS011;63506;49.346;8.798;2023-09-19T10:59:28;1.73;;;1.38;;
74941;SDS011;63506;49.346;8.798;2023-09-19T11:02:15;4.47;;;1.90;;
74941;SDS011;63506;49.346;8.798;2023-09-19T11:04:49;1.40;;;1.00;;
74941;SDS011;63506;49.346;8.798;2023-09-19T11:07:19;2.42;;;1.50;;
74941;SDS011;63506;49.346;8.798;2023-09-19T11:09:50;1.98;;;1.25;;
74941;SDS011;63506;49.346;8.798;2023-09-19T11:18:54;2.40;;;1.40;;
74941;SDS011;63506;49.346;8.798;2023-09-19T11:21:39;2.78;;;1.42;;
74941;SDS011;63506;49.346;8.798;2023-09-19T11:24:27;6.50;;;2.00;;
74941;SDS011;63506;49.346;8.798;2023-09-19T11:27:14;2.08;;;1.50;;
74941;SDS011;63506;49.346;8.798;2023-09-19T11:29:44;4.20;;;1.50;;
74941;SDS011;63506;49.346;8.798;2023-09-19T11:32:14;2.03;;;1.83;;
74941;SDS011;63506;49.346;8.798;2023-09-19T11:34:47;1.33;;;0.80;;
74941;SDS011;63506;49.346;8.798;2023-09-19T11:40:45;2.28;;;1.38;;
74941;SDS011;63506;49.346;8.798;2023-09-19T11:43:30;4.70;;;1.40;;
74941;SDS011;63506;49.346;8.798;2023-09-19T11:46:08;2.65;;;1.20;;
74941;SDS011;63506;49.346;8.798;2023-09-19T11:48:39;3.25;;;1.27;;
74941;SDS011;63506;49.346;8.798;2023-09-19T11:53:47;3.90;;;1.23;;
74941;SDS011;63506;49.346;8.798;2023-09-19T11:56:18;1.50;;;1.23;;
74941;SDS011;63506;49.346;8.798;2023-09-19T11:58:48;2.20;;;1.40;;
74941;SDS011;63506;49.346;8.798;2023-09-19T12:01:21;3.17;;;1.42;;
74941;SDS011;63506;49.346;8.798;2023-09-19T12:03:57;4.07;;;1.30;;
74941;SDS011;63506;49.346;8.798;2023-09-19T12:06:27;2.70;;;1.30;;
74941;SDS011;63506;49.346;8.798;2023-09-19T12:08:55;3.95;;;1.85;;
74941;SDS011;63506;49.346;8.798;2023-09-19T12:11:28;3.17;;;1.50;;
74941;SDS011;63506;49.346;8.798;2023-09-19T12:14:01;4.13;;;1.48;;
74941;SDS011;63506;49.346;8.798;2023-09-19T12:16:35;3.13;;;1.48;;
74941;SDS011;63506;49.346;8.798;2023-09-19T12:19:17;2.15;;;1.20;;
74941;SDS011;63506;49.346;8.798;2023-09-19T12:21:54;4.47;;;1.60;;
74941;SDS011;63506;49.346;8.798;2023-09-19T12:24:26;1.52;;;1.15;;
74941;SDS011;63506;49.346;8.798;2023-09-19T12:27:02;2.75;;;1.80;;
74941;SDS011;63506;49.346;8.798;2023-09-19T12:29:31;2.03;;;1.40;;
74941;SDS011;63506;49.346;8.798;2023-09-19T12:32:15;2.13;;;1.33;;
74941;SDS011;63506;49.346;8.798;2023-09-19T12:34:51;2.65;;;1.48;;
74941;SDS011;63506;49.346;8.798;2023-09-19T12:37:23;1.83;;;1.20;;
74941;SDS011;63506;49.346;8.798;2023-09-19T12:40:03;5.50;;;2.20;;
74941;SDS011;63506;49.346;8.798;2023-09-19T12:42:43;3.58;;;1.40;;
74941;SDS011;63506;49.346;8.798;2023-09-19T12:45:11;2.70;;;2.08;;
74941;SDS011;63506;49.346;8.798;2023-09-19T12:47:41;1.63;;;1.02;;
74941;SDS011;63506;49.346;8.798;2023-09-19T12:51:00;2.10;;;1.05;;
74941;SDS011;63506;49.346;8.798;2023-09-19T12:53:33;1.77;;;1.08;;
74941;SDS011;63506;49.346;8.798;2023-09-19T12:56:06;1.73;;;1.30;;
74941;SDS011;63506;49.346;8.798;2023-09-19T12:58:47;2.42;;;1.60;;
74941;SDS011;63506;49.346;8.798;2023-09-19T13:01:16;4.97;;;1.77;;
74941;SDS011;63506;49.346;8.798;2023-09-19T13:03:44;3.67;;;1.52;;
74941;SDS011;63506;49.346;8.798;2023-09-19T13:06:12;2.40;;;1.35;;
74941;SDS011;63506;49.346;8.798;2023-09-19T13:08:45;1.97;;;1.30;;
74941;SDS011;63506;49.346;8.798;2023-09-19T13:11:20;2.35;;;1.45;;
74941;SDS011;63506;49.346;8.798;2023-09-19T13:13:48;2.10;;;0.85;;
74941;SDS011;63506;49.346;8.798;2023-09-19T13:16:24;1.77;;;1.05;;
74941;SDS011;63506;49.346;8.798;2023-09-19T13:18:52;2.85;;;1.08;;
74941;SDS011;63506;49.346;8.798;2023-09-19T13:21:29;1.38;;;0.90;;
74941;SDS011;63506;49.346;8.798;2023-09-19T13:24:20;4.75;;;1.30;;
74941;SDS011;63506;49.346;8.798;2023-09-19T13:26:53;2.88;;;1.63;;
74941;SDS011;63506;49.346;8.798;2023-09-19T13:29:26;2.17;;;1.52;;
74941;SDS011;63506;49.346;8.798;2023-09-19T13:31:53;1.27;;;0.90;;
74941;SDS011;63506;49.346;8.798;2023-09-19T13:34:21;2.17;;;1.33;;
74941;SDS011;63506;49.346;8.798;2023-09-19T13:36:49;3.17;;;1.27;;
74941;SDS011;63506;49.346;8.798;2023-09-19T13:39:16;2.55;;;0.95;;
74941;SDS011;63506;49.346;8.798;2023-09-19T13:41:46;2.17;;;1.83;;
74941;SDS011;63506;49.346;8.798;2023-09-19T13:44:15;5.28;;;1.38;;
74941;SDS011;63506;49.346;8.798;2023-09-19T13:46:43;2.10;;;1.08;;
74941;SDS011;63506;49.346;8.798;2023-09-19T13:49:14;2.08;;;1.40;;
74941;SDS011;63506;49.346;8.798;2023-09-19T13:51:43;3.13;;;1.20;;
74941;SDS011;63506;49.346;8.798;2023-09-19T13:54:13;4.90;;;1.63;;
74941;SDS011;63506;49.346;8.798;2023-09-19T13:56:41;4.82;;;1.70;;
74941;SDS011;63506;49.346;8.798;2023-09-19T13:59:10;2.10;;;1.42;;
74941;SDS011;63506;49.346;8.798;2023-09-19T14:01:37;5.63;;;1.30;;
74941;SDS011;63506;49.346;8.798;2023-09-19T14:04:06;1.33;;;1.10;;
74941;SDS011;63506;49.346;8.798;2023-09-19T14:06:35;6.55;;;1.23;;
74941;SDS011;63506;49.346;8.798;2023-09-19T14:09:06;2.35;;;1.15;;
74941;SDS011;63506;49.346;8.798;2023-09-19T14:11:34;2.45;;;1.00;;
74941;SDS011;63506;49.346;8.798;2023-09-19T14:14:02;1.00;;;0.70;;
74941;SDS011;63506;49.346;8.798;2023-09-19T14:16:35;1.92;;;1.35;;
74941;SDS011;63506;49.346;8.798;2023-09-19T14:19:04;2.08;;;1.17;;
74941;SDS011;63506;49.346;8.798;2023-09-19T14:21:31;14.93;;;1.52;;
74941;SDS011;63506;49.346;8.798;2023-09-19T14:23:58;6.57;;;1.42;;
74941;SDS011;63506;49.346;8.798;2023-09-19T14:26:26;2.65;;;1.30;;
74941;SDS011;63506;49.346;8.798;2023-09-19T14:28:56;2.15;;;1.05;;
74941;SDS011;63506;49.346;8.798;2023-09-19T14:31:23;1.38;;;1.10;;
74941;SDS011;63506;49.346;8.798;2023-09-19T14:33:56;1.48;;;0.98;;
74941;SDS011;63506;49.346;8.798;2023-09-19T14:36:25;2.47;;;1.50;;
74941;SDS011;63506;49.346;8.798;2023-09-19T14:38:55;1.55;;;0.77;;
74941;SDS011;63506;49.346;8.798;2023-09-19T14:41:22;1.98;;;1.48;;
74941;SDS011;63506;49.346;8.798;2023-09-19T14:43:51;4.28;;;1.17;;
74941;SDS011;63506;49.346;8.798;2023-09-19T14:46:19;2.58;;;1.15;;
74941;SDS011;63506;49.346;8.798;2023-09-19T14:48:50;4.43;;;1.10;;
74941;SDS011;63506;49.346;8.798;2023-09-19T14:51:22;1.98;;;1.00;;
74941;SDS011;63506;49.346;8.798;2023-09-19T14:53:50;2.97;;;1.20;;
74941;SDS011;63506;49.346;8.798;2023-09-19T14:56:18;4.30;;;1.45;;
74941;SDS011;63506;49.346;8.798;2023-09-19T14:58:49;1.20;;;1.10;;
74941;SDS011;63506;49.346;8.798;2023-09-19T15:01:16;1.23;;;0.95;;
74941;SDS011;63506;49.346;8.798;2023-09-19T15:03:43;3.60;;;1.05;;
74941;SDS011;63506;49.346;8.798;2023-09-19T15:06:15;1.85;;;1.10;;
74941;SDS011;63506;49.346;8.798;2023-09-19T15:08:44;1.00;;;0.70;;
74941;SDS011;63506;49.346;8.798;2023-09-19T15:11:15;4.00;;;1.10;;
74941;SDS011;63506;49.346;8.798;2023-09-19T15:13:43;2.45;;;1.15;;
74941;SDS011;63506;49.346;8.798;2023-09-19T15:16:12;1.58;;;1.00;;
74941;SDS011;63506;49.346;8.798;2023-09-19T15:18:40;3.03;;;1.27;;
74941;SDS011;63506;49.346;8.798;2023-09-19T15:21:09;0.80;;;0.70;;
74941;SDS011;63506;49.346;8.798;2023-09-19T15:23:37;2.67;;;1.10;;
74941;SDS011;63506;49.346;8.798;2023-09-19T15:26:07;2.78;;;1.48;;
74941;SDS011;63506;49.346;8.798;2023-09-19T15:28:38;2.25;;;1.25;;
74941;SDS011;63506;49.346;8.798;2023-09-19T15:31:09;1.48;;;0.95;;
74941;SDS011;63506;49.346;8.798;2023-09-19T15:33:37;5.50;;;1.77;;
74941;SDS011;63506;49.346;8.798;2023-09-19T15:36:09;1.50;;;0.98;;